首页
METAR-TAF:

METAR-TAF

机场 :

阿雅克肖, 法国

纬度: 41-55N, 经度: 008-48E, 海拔: 6米

当前天气观测

该预报发布于33分钟前的21:30 UTC
风速3节,风向东北
温度 12°C
湿度 82%
气压 1013 hPa
能见度10公里或以上
阴天层高于9200英尺

METAR: LFKJ 292130Z AUTO 05003KT 9999 OVC092 12/09 Q1013 NOSIG

时间: 00:03 (22:03 UTC)

预报

该预报发布于2小时和3分钟前的20:00 UTC
预报有效从29日的 21点(UTC)到 30日的 21点(UTC)
风速6节,风向东北
能见度10公里或以上
少量云层高于3000英尺
成为
从 30日的 09点(UTC)到 30日的 11点(UTC)
风速10节,风向西南
短暂存在
从 30日的 11点(UTC)到 30日的 16点(UTC)
少量云层高于3500英尺, 塔状积云.
成为
从 30日的 17点(UTC)到 30日的 19点(UTC)
风速6节,风向东北

TAF: LFKJ 292000Z 2921/3021 04006KT 9999 FEW030 BECMG 3009/3011 22010KT TEMPO 3011/3016 FEW035TCU BECMG 3017/3019 05006KT

超过4000个机场的气象观测和天气预报(METAR&TAF报告)。

可查询的气象台以黄色和红色小点在地图上表示。

将鼠标移到小点上方,可查看气象台名称。

然后点击查看天气观测和预报。

如需切换地图:点击带黑十字的绿色按钮放大地图;点击带横线的绿色按钮缩小地图;或者点击绿色箭头查看邻近地区的地图。


METAR-TAF: